Terminal Aerodrome Forecast
Issued by NWS

Home | Current Version | Previous Version | Text Only | Print | Product List | Glossary On
Versions: 1 2 3 4 5 6 7 8 9 10 11 12 13 14 15 16 17 18 19 20 21 22 23 24 25 26 27 28 29 30
000
FTUS46 KOTX 250556 CCA
TAFPUW
TAF COR
KPUW 250556Z 2506/2606 28011KT P6SM VCSH SCT006 OVC010
      TEMPO 2506/2507 6SM -SN BR BKN004
     FM250900 27006KT 5SM BR OVC008
     FM252100 27008KT P6SM OVC012
     FM260300 14003KT 5SM BR OVC010=

USA.gov is the U.S. government's official web portal to all federal, state and local government web resources and services.